»·PEaware :: N761FG KSNA-KCRQ

N761FG :: KSNA-KCRQ

FLIGHT INFORMATION

Flight Status: Arrived
Operator: Privately registered:
United States
More flights under this callsign
Pilot: Glenn W. (23047)
Aircraft: CESSNA 172 SKYHAWK
(C172)
More flights by this aircraft type
Origin: KSNA John Wayne-Orange Co
United States
Destination: KCRQ McClellan-Palomar
United States
More flights between these airports :: More routes between these airports
Route: +V23 OCN
File this flight plan on PilotEdge
Remarks: I-2 Rating
Altitude:
(Current/Filed)
3,000ft
Speed:
(Current/Filed)
110kts
Departed: 12-Nov-19 09:12 AM
Arrived: 12-Nov-19 09:49 AM
Distance/Time
Traveled:
44nm/0:37
Distance/Time
To Go:
Arrived

Flight Plot

Page will automatically refresh every two minutes.


Map Options




Map Legend


Flown Route
Filed Route
Departure Airport
Arrival Airport
Navaid (VOR, NDB)
Fix

Horizontal Profiles

Position Reports

Time Latitude Longitude Heading Altitude Ground
Speed
12-Nov-19 08:53 33.671189 -117.868027 211 60ft 0kts
12-Nov-19 08:54 33.671189 -117.868027 211 60ft 0kts
12-Nov-19 08:55 33.671189 -117.868027 211 60ft 0kts
12-Nov-19 08:56 33.671189 -117.868027 211 60ft 0kts
12-Nov-19 08:57 33.671189 -117.868027 211 60ft 0kts
12-Nov-19 08:58 33.671189 -117.868027 211 60ft 0kts
12-Nov-19 08:59 33.671189 -117.868027 211 60ft 0kts
12-Nov-19 09:00 33.671189 -117.868027 211 60ft 0kts
12-Nov-19 09:01 33.671189 -117.868027 211 60ft 0kts
12-Nov-19 09:02 33.671189 -117.868027 211 60ft 0kts
12-Nov-19 09:03 33.671189 -117.868027 211 60ft 0kts
12-Nov-19 09:04 33.671189 -117.868027 211 60ft 0kts
12-Nov-19 09:05 33.671189 -117.868027 211 60ft 0kts
12-Nov-19 09:06 33.671189 -117.868027 211 60ft 0kts
12-Nov-19 09:07 33.672870 -117.867533 42 60ft 11kts
12-Nov-19 09:08 33.676056 -117.865844 27 60ft 17kts
12-Nov-19 09:09 33.679856 -117.863526 338 60ft 8kts
12-Nov-19 09:10 33.679967 -117.863657 300 60ft 6kts
12-Nov-19 09:11 33.667689 -117.873380 210 445ft 75kts
12-Nov-19 09:12 33.655699 -117.861086 112 1321ft 53kts
12-Nov-19 09:13 33.637494 -117.858132 181 1918ft 67kts
12-Nov-19 09:14 33.618031 -117.861687 187 2558ft 72kts
12-Nov-19 09:15 33.599567 -117.863942 180 3195ft 67kts
12-Nov-19 09:16 33.590164 -117.845663 107 3740ft 73kts
12-Nov-19 09:17 33.582130 -117.822572 119 4292ft 77kts
12-Nov-19 09:18 33.570200 -117.802688 139 4781ft 85kts
12-Nov-19 09:19 33.548608 -117.780699 125 5064ft 106kts
12-Nov-19 09:20 33.527625 -117.749856 137 4896ft 137kts
12-Nov-19 09:21 33.500293 -117.719981 130 4884ft 130kts
12-Nov-19 09:22 33.475850 -117.687944 135 4883ft 129kts
12-Nov-19 09:23 33.450071 -117.657917 135 4882ft 129kts
12-Nov-19 09:24 33.424309 -117.627897 135 4884ft 128kts
12-Nov-19 09:25 33.396968 -117.600361 135 4883ft 128kts
12-Nov-19 09:26 33.371236 -117.570347 135 4880ft 128kts
12-Nov-19 09:27 33.345592 -117.540412 135 4879ft 128kts
12-Nov-19 09:28 33.319939 -117.510451 135 4877ft 128kts
12-Nov-19 09:29 33.294278 -117.480480 135 4875ft 129kts
12-Nov-19 09:30 33.268597 -117.450450 135 4882ft 128kts
12-Nov-19 09:31 33.242955 -117.420450 135 4880ft 128kts
12-Nov-19 09:32 33.230513 -117.381663 98 4875ft 128kts
12-Nov-19 09:33 33.228679 -117.339285 92 4879ft 128kts
12-Nov-19 09:34 33.226898 -117.295265 92 4515ft 149kts
12-Nov-19 09:35 33.224411 -117.245487 92 3866ft 138kts
12-Nov-19 09:36 33.222895 -117.200985 92 3857ft 131kts
12-Nov-19 09:37 33.221430 -117.157506 92 3848ft 131kts
12-Nov-19 09:38 33.220140 -117.115151 92 3932ft 128kts
12-Nov-19 09:39 33.218714 -117.071895 92 3932ft 129kts
12-Nov-19 09:40 33.204679 -117.037724 167 3933ft 129kts
12-Nov-19 09:41 33.170767 -117.041011 218 3949ft 128kts
12-Nov-19 09:42 33.157870 -117.080220 259 3937ft 130kts
12-Nov-19 09:43 33.153418 -117.122148 266 3240ft 135kts
12-Nov-19 09:44 33.146592 -117.167541 259 2243ft 124kts
12-Nov-19 09:45 33.140130 -117.206126 260 1642ft 132kts
12-Nov-19 09:46 33.134556 -117.240602 259 1261ft 62kts
12-Nov-19 09:47 33.131154 -117.261813 258 604ft 64kts
12-Nov-19 09:48 33.128535 -117.278369 261 335ft 30kts
12-Nov-19 09:49 33.127452 -117.280118 250 335ft 0kts
12-Nov-19 09:50 33.126684 -117.282489 69 335ft 3kts
12-Nov-19 09:51 33.127244 -117.277815 108 335ft 12kts

Navigation Log

Ident Type
Flight plan parsing failed, navigation log unavailable